sensor_id;sensor_type;location;lat;lon;timestamp;temperature;humidity
65291;SHT30;51893;59.754;10.110;2023-02-01T00:01:21;-1.77;79.44
65291;SHT30;51893;59.754;10.110;2023-02-01T00:03:49;-1.82;79.65
65291;SHT30;51893;59.754;10.110;2023-02-01T00:06:17;-1.85;79.85
65291;SHT30;51893;59.754;10.110;2023-02-01T00:08:45;-1.89;79.77
65291;SHT30;51893;59.754;10.110;2023-02-01T00:11:13;-1.97;79.66
65291;SHT30;51893;59.754;10.110;2023-02-01T00:13:41;-1.96;79.76
65291;SHT30;51893;59.754;10.110;2023-02-01T00:16:10;-1.97;79.72
65291;SHT30;51893;59.754;10.110;2023-02-01T00:18:46;-1.89;79.54
65291;SHT30;51893;59.754;10.110;2023-02-01T00:21:22;-1.79;79.29
65291;SHT30;51893;59.754;10.110;2023-02-01T00:23:50;-1.70;79.04
65291;SHT30;51893;59.754;10.110;2023-02-01T00:26:39;-1.63;78.91
65291;SHT30;51893;59.754;10.110;2023-02-01T00:29:11;-1.58;78.65
65291;SHT30;51893;59.754;10.110;2023-02-01T00:31:43;-1.74;78.47
65291;SHT30;51893;59.754;10.110;2023-02-01T00:34:15;-1.98;78.76
65291;SHT30;51893;59.754;10.110;2023-02-01T00:36:44;-2.05;79.41
65291;SHT30;51893;59.754;10.110;2023-02-01T00:39:13;-2.09;80.40
65291;SHT30;51893;59.754;10.110;2023-02-01T00:41:41;-2.10;80.55
65291;SHT30;51893;59.754;10.110;2023-02-01T00:44:10;-2.02;80.20
65291;SHT30;51893;59.754;10.110;2023-02-01T00:46:38;-2.03;79.98
65291;SHT30;51893;59.754;10.110;2023-02-01T00:49:06;-1.95;79.73
65291;SHT30;51893;59.754;10.110;2023-02-01T00:51:37;-1.98;79.67
65291;SHT30;51893;59.754;10.110;2023-02-01T00:54:06;-1.88;79.59
65291;SHT30;51893;59.754;10.110;2023-02-01T00:56:35;-1.91;79.49
65291;SHT30;51893;59.754;10.110;2023-02-01T00:59:03;-1.97;79.67
65291;SHT30;51893;59.754;10.110;2023-02-01T01:01:33;-2.03;79.73
65291;SHT30;51893;59.754;10.110;2023-02-01T01:04:01;-2.10;80.21
65291;SHT30;51893;59.754;10.110;2023-02-01T01:06:32;-2.09;80.24
65291;SHT30;51893;59.754;10.110;2023-02-01T01:09:03;-2.13;80.35
65291;SHT30;51893;59.754;10.110;2023-02-01T01:11:36;-2.13;80.34
65291;SHT30;51893;59.754;10.110;2023-02-01T01:14:06;-2.11;80.18
65291;SHT30;51893;59.754;10.110;2023-02-01T01:16:35;-2.09;80.13
65291;SHT30;51893;59.754;10.110;2023-02-01T01:19:04;-2.02;80.53
65291;SHT30;51893;59.754;10.110;2023-02-01T01:21:33;-1.98;80.43
65291;SHT30;51893;59.754;10.110;2023-02-01T01:24:01;-1.88;80.20
65291;SHT30;51893;59.754;10.110;2023-02-01T01:26:29;-1.86;79.86
65291;SHT30;51893;59.754;10.110;2023-02-01T01:28:59;-1.92;79.73
65291;SHT30;51893;59.754;10.110;2023-02-01T01:31:28;-1.99;79.85
65291;SHT30;51893;59.754;10.110;2023-02-01T01:34:01;-1.98;80.15
65291;SHT30;51893;59.754;10.110;2023-02-01T01:36:29;-1.97;80.43
65291;SHT30;51893;59.754;10.110;2023-02-01T01:38:57;-1.92;80.63
65291;SHT30;51893;59.754;10.110;2023-02-01T01:41:28;-1.87;80.67
65291;SHT30;51893;59.754;10.110;2023-02-01T01:44:00;-1.86;80.55
65291;SHT30;51893;59.754;10.110;2023-02-01T01:46:40;-1.83;80.49
65291;SHT30;51893;59.754;10.110;2023-02-01T01:51:45;-1.81;80.37
65291;SHT30;51893;59.754;10.110;2023-02-01T01:54:23;-1.76;80.36
65291;SHT30;51893;59.754;10.110;2023-02-01T01:56:56;-1.64;80.24
65291;SHT30;51893;59.754;10.110;2023-02-01T01:59:36;-1.59;80.18
65291;SHT30;51893;59.754;10.110;2023-02-01T02:02:10;-1.55;80.11
65291;SHT30;51893;59.754;10.110;2023-02-01T02:04:38;-1.48;79.99
65291;SHT30;51893;59.754;10.110;2023-02-01T02:07:10;-1.45;79.81
65291;SHT30;51893;59.754;10.110;2023-02-01T02:09:44;-1.48;79.64
65291;SHT30;51893;59.754;10.110;2023-02-01T02:12:27;-1.51;79.70
65291;SHT30;51893;59.754;10.110;2023-02-01T02:14:57;-1.50;79.77
65291;SHT30;51893;59.754;10.110;2023-02-01T02:35:29;-1.48;80.68
65291;SHT30;51893;59.754;10.110;2023-02-01T02:44:14;-1.57;81.61
65291;SHT30;51893;59.754;10.110;2023-02-01T02:47:38;-1.46;81.36
65291;SHT30;51893;59.754;10.110;2023-02-01T02:50:36;-1.41;81.10
65291;SHT30;51893;59.754;10.110;2023-02-01T02:53:35;-1.34;81.01
65291;SHT30;51893;59.754;10.110;2023-02-01T02:56:43;-1.30;81.16
65291;SHT30;51893;59.754;10.110;2023-02-01T02:59:30;-1.27;81.33
65291;SHT30;51893;59.754;10.110;2023-02-01T03:02:20;-1.18;81.30
65291;SHT30;51893;59.754;10.110;2023-02-01T03:05:09;-1.29;81.17
65291;SHT30;51893;59.754;10.110;2023-02-01T03:10:53;-1.46;81.20
65291;SHT30;51893;59.754;10.110;2023-02-01T03:16:26;-1.62;81.28
65291;SHT30;51893;59.754;10.110;2023-02-01T03:22:12;-1.60;81.47
65291;SHT30;51893;59.754;10.110;2023-02-01T03:24:44;-1.50;81.32
65291;SHT30;51893;59.754;10.110;2023-02-01T03:27:27;-1.40;81.09
65291;SHT30;51893;59.754;10.110;2023-02-01T03:30:17;-1.43;80.85
65291;SHT30;51893;59.754;10.110;2023-02-01T03:33:00;-1.55;80.96
65291;SHT30;51893;59.754;10.110;2023-02-01T03:35:40;-1.62;81.01
65291;SHT30;51893;59.754;10.110;2023-02-01T03:41:30;-1.75;81.10
65291;SHT30;51893;59.754;10.110;2023-02-01T03:47:23;-1.77;80.92
65291;SHT30;51893;59.754;10.110;2023-02-01T03:49:55;-1.81;80.90
65291;SHT30;51893;59.754;10.110;2023-02-01T03:52:40;-1.86;80.99
65291;SHT30;51893;59.754;10.110;2023-02-01T03:55:15;-1.87;81.00
65291;SHT30;51893;59.754;10.110;2023-02-01T03:58:21;-1.87;80.99
65291;SHT30;51893;59.754;10.110;2023-02-01T04:00:46;-1.82;80.84
65291;SHT30;51893;59.754;10.110;2023-02-01T04:03:19;-1.80;80.84
65291;SHT30;51893;59.754;10.110;2023-02-01T04:05:50;-1.77;80.71
65291;SHT30;51893;59.754;10.110;2023-02-01T04:08:19;-1.77;80.74
65291;SHT30;51893;59.754;10.110;2023-02-01T04:10:48;-1.75;80.73
65291;SHT30;51893;59.754;10.110;2023-02-01T04:13:16;-1.73;80.74
65291;SHT30;51893;59.754;10.110;2023-02-01T04:15:44;-1.74;80.77
65291;SHT30;51893;59.754;10.110;2023-02-01T04:18:14;-1.66;80.81
65291;SHT30;51893;59.754;10.110;2023-02-01T04:20:42;-1.63;80.60
65291;SHT30;51893;59.754;10.110;2023-02-01T04:23:12;-1.68;80.55
65291;SHT30;51893;59.754;10.110;2023-02-01T04:25:40;-1.66;80.59
65291;SHT30;51893;59.754;10.110;2023-02-01T04:28:07;-1.64;80.64
65291;SHT30;51893;59.754;10.110;2023-02-01T04:30:39;-1.64;80.46
65291;SHT30;51893;59.754;10.110;2023-02-01T04:33:08;-1.71;80.47
65291;SHT30;51893;59.754;10.110;2023-02-01T04:35:35;-1.73;80.60
65291;SHT30;51893;59.754;10.110;2023-02-01T04:38:03;-1.75;80.81
65291;SHT30;51893;59.754;10.110;2023-02-01T04:40:31;-1.73;80.98
65291;SHT30;51893;59.754;10.110;2023-02-01T04:43:00;-1.82;81.01
65291;SHT30;51893;59.754;10.110;2023-02-01T04:45:29;-1.95;81.37
65291;SHT30;51893;59.754;10.110;2023-02-01T04:47:58;-1.98;81.54
65291;SHT30;51893;59.754;10.110;2023-02-01T04:50:26;-2.01;81.56
65291;SHT30;51893;59.754;10.110;2023-02-01T04:52:55;-1.98;81.64
65291;SHT30;51893;59.754;10.110;2023-02-01T04:55:23;-1.95;81.70
65291;SHT30;51893;59.754;10.110;2023-02-01T04:57:50;-1.96;81.90
65291;SHT30;51893;59.754;10.110;2023-02-01T05:00:19;-1.98;82.27
65291;SHT30;51893;59.754;10.110;2023-02-01T05:02:48;-1.94;82.39
65291;SHT30;51893;59.754;10.110;2023-02-01T05:05:16;-1.92;82.37
65291;SHT30;51893;59.754;10.110;2023-02-01T05:07:45;-1.89;82.40
65291;SHT30;51893;59.754;10.110;2023-02-01T05:10:14;-1.91;82.53
65291;SHT30;51893;59.754;10.110;2023-02-01T05:12:43;-1.94;82.78
65291;SHT30;51893;59.754;10.110;2023-02-01T05:15:31;-1.98;83.05
65291;SHT30;51893;59.754;10.110;2023-02-01T05:17:59;-1.93;83.20
65291;SHT30;51893;59.754;10.110;2023-02-01T05:20:27;-1.94;83.22
65291;SHT30;51893;59.754;10.110;2023-02-01T05:22:55;-2.06;83.55
65291;SHT30;51893;59.754;10.110;2023-02-01T05:25:22;-2.16;83.85
65291;SHT30;51893;59.754;10.110;2023-02-01T05:27:50;-2.20;84.07
65291;SHT30;51893;59.754;10.110;2023-02-01T05:30:21;-2.22;84.23
65291;SHT30;51893;59.754;10.110;2023-02-01T05:32:50;-2.23;84.45
65291;SHT30;51893;59.754;10.110;2023-02-01T05:35:20;-2.19;84.48
65291;SHT30;51893;59.754;10.110;2023-02-01T05:37:47;-2.20;84.40
65291;SHT30;51893;59.754;10.110;2023-02-01T05:40:16;-2.27;84.41
65291;SHT30;51893;59.754;10.110;2023-02-01T05:42:44;-2.28;84.67
65291;SHT30;51893;59.754;10.110;2023-02-01T05:45:12;-2.30;84.68
65291;SHT30;51893;59.754;10.110;2023-02-01T05:47:40;-2.28;84.78
65291;SHT30;51893;59.754;10.110;2023-02-01T05:50:07;-2.22;84.82
65291;SHT30;51893;59.754;10.110;2023-02-01T05:52:36;-2.19;84.79
65291;SHT30;51893;59.754;10.110;2023-02-01T05:55:05;-2.19;84.78
65291;SHT30;51893;59.754;10.110;2023-02-01T05:57:35;-2.17;84.80
65291;SHT30;51893;59.754;10.110;2023-02-01T06:00:05;-2.15;84.80
65291;SHT30;51893;59.754;10.110;2023-02-01T06:02:34;-2.16;84.74
65291;SHT30;51893;59.754;10.110;2023-02-01T06:05:02;-2.20;84.72
65291;SHT30;51893;59.754;10.110;2023-02-01T06:07:31;-2.20;84.79
65291;SHT30;51893;59.754;10.110;2023-02-01T06:09:59;-2.16;84.82
65291;SHT30;51893;59.754;10.110;2023-02-01T06:12:28;-2.13;84.75
65291;SHT30;51893;59.754;10.110;2023-02-01T06:14:55;-2.07;84.70
65291;SHT30;51893;59.754;10.110;2023-02-01T06:17:23;-2.05;84.54
65291;SHT30;51893;59.754;10.110;2023-02-01T06:19:52;-2.06;84.50
65291;SHT30;51893;59.754;10.110;2023-02-01T06:22:20;-2.02;84.50
65291;SHT30;51893;59.754;10.110;2023-02-01T06:24:48;-2.01;84.42
65291;SHT30;51893;59.754;10.110;2023-02-01T06:27:16;-2.00;84.41
65291;SHT30;51893;59.754;10.110;2023-02-01T06:29:45;-1.91;84.40
65291;SHT30;51893;59.754;10.110;2023-02-01T06:32:14;-1.86;84.18
65291;SHT30;51893;59.754;10.110;2023-02-01T06:34:42;-1.90;84.03
65291;SHT30;51893;59.754;10.110;2023-02-01T06:37:10;-1.95;84.06
65291;SHT30;51893;59.754;10.110;2023-02-01T06:39:40;-1.97;84.18
65291;SHT30;51893;59.754;10.110;2023-02-01T06:42:08;-1.98;84.20
65291;SHT30;51893;59.754;10.110;2023-02-01T06:44:37;-1.93;84.18
65291;SHT30;51893;59.754;10.110;2023-02-01T06:47:05;-1.90;84.09
65291;SHT30;51893;59.754;10.110;2023-02-01T06:49:35;-1.86;84.00
65291;SHT30;51893;59.754;10.110;2023-02-01T06:52:03;-1.82;83.90
65291;SHT30;51893;59.754;10.110;2023-02-01T06:54:32;-1.77;83.77
65291;SHT30;51893;59.754;10.110;2023-02-01T06:57:01;-1.71;83.71
65291;SHT30;51893;59.754;10.110;2023-02-01T06:59:29;-1.68;83.54
65291;SHT30;51893;59.754;10.110;2023-02-01T07:01:57;-1.72;83.49
65291;SHT30;51893;59.754;10.110;2023-02-01T07:04:25;-1.72;83.59
65291;SHT30;51893;59.754;10.110;2023-02-01T07:06:53;-1.74;83.60
65291;SHT30;51893;59.754;10.110;2023-02-01T07:09:21;-1.82;83.62
65291;SHT30;51893;59.754;10.110;2023-02-01T07:11:49;-1.89;83.71
65291;SHT30;51893;59.754;10.110;2023-02-01T07:14:17;-1.87;83.87
65291;SHT30;51893;59.754;10.110;2023-02-01T07:16:48;-1.74;83.77
65291;SHT30;51893;59.754;10.110;2023-02-01T07:19:16;-1.64;83.56
65291;SHT30;51893;59.754;10.110;2023-02-01T07:21:44;-1.55;83.28
65291;SHT30;51893;59.754;10.110;2023-02-01T07:24:12;-1.54;83.15
65291;SHT30;51893;59.754;10.110;2023-02-01T07:26:43;-1.45;83.01
65291;SHT30;51893;59.754;10.110;2023-02-01T07:29:11;-1.45;82.84
65291;SHT30;51893;59.754;10.110;2023-02-01T07:31:39;-1.49;82.74
65291;SHT30;51893;59.754;10.110;2023-02-01T07:34:08;-1.60;82.76
65291;SHT30;51893;59.754;10.110;2023-02-01T07:36:36;-1.69;82.90
65291;SHT30;51893;59.754;10.110;2023-02-01T07:39:04;-1.81;83.11
65291;SHT30;51893;59.754;10.110;2023-02-01T07:41:32;-1.83;83.36
65291;SHT30;51893;59.754;10.110;2023-02-01T07:44:01;-1.81;83.37
65291;SHT30;51893;59.754;10.110;2023-02-01T07:46:28;-1.84;83.49
65291;SHT30;51893;59.754;10.110;2023-02-01T07:48:56;-1.94;83.80
65291;SHT30;51893;59.754;10.110;2023-02-01T07:51:29;-2.02;84.19
65291;SHT30;51893;59.754;10.110;2023-02-01T07:53:57;-2.10;84.52
65291;SHT30;51893;59.754;10.110;2023-02-01T07:56:25;-2.14;84.70
65291;SHT30;51893;59.754;10.110;2023-02-01T07:58:54;-2.10;84.72
65291;SHT30;51893;59.754;10.110;2023-02-01T08:01:24;-2.18;84.95
65291;SHT30;51893;59.754;10.110;2023-02-01T08:06:27;-2.10;85.03
65291;SHT30;51893;59.754;10.110;2023-02-01T08:08:58;-1.97;84.91
65291;SHT30;51893;59.754;10.110;2023-02-01T08:11:30;-1.78;84.62
65291;SHT30;51893;59.754;10.110;2023-02-01T08:13:59;-1.63;84.21
65291;SHT30;51893;59.754;10.110;2023-02-01T08:16:30;-1.59;83.81
65291;SHT30;51893;59.754;10.110;2023-02-01T08:18:58;-1.66;83.65
65291;SHT30;51893;59.754;10.110;2023-02-01T08:21:27;-1.79;83.82
65291;SHT30;51893;59.754;10.110;2023-02-01T08:24:05;-1.87;84.07
65291;SHT30;51893;59.754;10.110;2023-02-01T08:26:36;-1.94;84.19
65291;SHT30;51893;59.754;10.110;2023-02-01T08:29:04;-1.89;84.25
65291;SHT30;51893;59.754;10.110;2023-02-01T08:31:34;-1.81;84.08
65291;SHT30;51893;59.754;10.110;2023-02-01T08:34:02;-1.73;83.82
65291;SHT30;51893;59.754;10.110;2023-02-01T08:36:35;-1.69;83.52
65291;SHT30;51893;59.754;10.110;2023-02-01T08:39:06;-1.63;83.35
65291;SHT30;51893;59.754;10.110;2023-02-01T08:41:36;-1.47;83.06
65291;SHT30;51893;59.754;10.110;2023-02-01T08:44:06;-1.47;82.67
65291;SHT30;51893;59.754;10.110;2023-02-01T08:46:34;-1.52;82.54
65291;SHT30;51893;59.754;10.110;2023-02-01T08:49:02;-1.63;82.50
65291;SHT30;51893;59.754;10.110;2023-02-01T08:51:35;-1.74;82.64
65291;SHT30;51893;59.754;10.110;2023-02-01T08:54:03;-1.82;82.84
65291;SHT30;51893;59.754;10.110;2023-02-01T08:56:31;-1.94;83.08
65291;SHT30;51893;59.754;10.110;2023-02-01T08:58:59;-1.92;83.20
65291;SHT30;51893;59.754;10.110;2023-02-01T09:01:27;-1.88;83.09
65291;SHT30;51893;59.754;10.110;2023-02-01T09:03:55;-1.80;82.91
65291;SHT30;51893;59.754;10.110;2023-02-01T09:06:23;-1.73;82.71
65291;SHT30;51893;59.754;10.110;2023-02-01T09:08:52;-1.67;82.53
65291;SHT30;51893;59.754;10.110;2023-02-01T09:11:20;-1.68;82.45
65291;SHT30;51893;59.754;10.110;2023-02-01T09:13:48;-1.66;82.39
65291;SHT30;51893;59.754;10.110;2023-02-01T09:16:16;-1.68;82.25
65291;SHT30;51893;59.754;10.110;2023-02-01T09:18:45;-1.72;82.16
65291;SHT30;51893;59.754;10.110;2023-02-01T09:21:33;-1.76;82.16
65291;SHT30;51893;59.754;10.110;2023-02-01T09:24:03;-1.84;82.30
65291;SHT30;51893;59.754;10.110;2023-02-01T09:26:31;-1.84;82.43
65291;SHT30;51893;59.754;10.110;2023-02-01T09:29:00;-1.75;82.45
65291;SHT30;51893;59.754;10.110;2023-02-01T09:31:29;-1.71;82.31
65291;SHT30;51893;59.754;10.110;2023-02-01T09:33:58;-1.69;82.25
65291;SHT30;51893;59.754;10.110;2023-02-01T09:36:26;-1.70;82.26
65291;SHT30;51893;59.754;10.110;2023-02-01T09:38:57;-1.76;82.40
65291;SHT30;51893;59.754;10.110;2023-02-01T09:44:34;-1.83;82.79
65291;SHT30;51893;59.754;10.110;2023-02-01T09:47:23;-1.75;82.86
65291;SHT30;51893;59.754;10.110;2023-02-01T09:49:59;-1.69;82.79
65291;SHT30;51893;59.754;10.110;2023-02-01T09:55:50;-1.66;82.35
65291;SHT30;51893;59.754;10.110;2023-02-01T10:01:17;-1.82;82.52
65291;SHT30;51893;59.754;10.110;2023-02-01T10:03:50;-1.81;82.50
65291;SHT30;51893;59.754;10.110;2023-02-01T10:15:18;-1.78;82.45
65291;SHT30;51893;59.754;10.110;2023-02-01T10:18:02;-1.69;82.48
65291;SHT30;51893;59.754;10.110;2023-02-01T10:24:46;-1.45;82.26
65291;SHT30;51893;59.754;10.110;2023-02-01T10:27:30;-1.37;82.10
65291;SHT30;51893;59.754;10.110;2023-02-01T10:33:00;-1.36;81.96
65291;SHT30;51893;59.754;10.110;2023-02-01T10:35:53;-1.33;82.00
65291;SHT30;51893;59.754;10.110;2023-02-01T10:38:30;-1.29;82.10
65291;SHT30;51893;59.754;10.110;2023-02-01T10:41:02;-1.28;82.09
65291;SHT30;51893;59.754;10.110;2023-02-01T10:43:43;-1.34;82.00
65291;SHT30;51893;59.754;10.110;2023-02-01T10:46:16;-1.47;82.22
65291;SHT30;51893;59.754;10.110;2023-02-01T10:48:47;-1.45;82.37
65291;SHT30;51893;59.754;10.110;2023-02-01T10:51:20;-1.44;82.26
65291;SHT30;51893;59.754;10.110;2023-02-01T10:53:58;-1.42;82.37
65291;SHT30;51893;59.754;10.110;2023-02-01T10:56:34;-1.35;82.38
65291;SHT30;51893;59.754;10.110;2023-02-01T10:59:13;-1.25;82.28
65291;SHT30;51893;59.754;10.110;2023-02-01T11:01:49;-1.18;82.04
65291;SHT30;51893;59.754;10.110;2023-02-01T11:04:26;-1.18;81.97
65291;SHT30;51893;59.754;10.110;2023-02-01T11:07:12;-1.15;82.00
65291;SHT30;51893;59.754;10.110;2023-02-01T11:10:01;-1.10;82.00
65291;SHT30;51893;59.754;10.110;2023-02-01T11:12:37;-1.09;82.00
65291;SHT30;51893;59.754;10.110;2023-02-01T11:17:54;-0.90;82.03
65291;SHT30;51893;59.754;10.110;2023-02-01T11:23:13;-0.76;81.77
65291;SHT30;51893;59.754;10.110;2023-02-01T11:25:48;-0.70;81.74
65291;SHT30;51893;59.754;10.110;2023-02-01T11:28:20;-0.67;81.62
65291;SHT30;51893;59.754;10.110;2023-02-01T11:30:58;-0.62;81.58
65291;SHT30;51893;59.754;10.110;2023-02-01T11:33:33;-0.57;81.48
65291;SHT30;51893;59.754;10.110;2023-02-01T11:36:12;-0.51;81.42
65291;SHT30;51893;59.754;10.110;2023-02-01T11:38:54;-0.55;81.31
65291;SHT30;51893;59.754;10.110;2023-02-01T11:47:25;-0.56;81.44
65291;SHT30;51893;59.754;10.110;2023-02-01T11:49:59;-0.58;81.32
65291;SHT30;51893;59.754;10.110;2023-02-01T11:55:33;-0.49;81.30
65291;SHT30;51893;59.754;10.110;2023-02-01T12:07:34;-0.50;81.10
65291;SHT30;51893;59.754;10.110;2023-02-01T12:10:26;-0.49;81.09
65291;SHT30;51893;59.754;10.110;2023-02-01T12:16:23;-0.47;81.08
65291;SHT30;51893;59.754;10.110;2023-02-01T12:18:59;-0.45;81.02
65291;SHT30;51893;59.754;10.110;2023-02-01T12:22:05;-0.43;81.00
65291;SHT30;51893;59.754;10.110;2023-02-01T12:31:25;-0.12;80.76
65291;SHT30;51893;59.754;10.110;2023-02-01T12:34:41;-0.10;80.49
65291;SHT30;51893;59.754;10.110;2023-02-01T12:41:04;-0.16;80.30
65291;SHT30;51893;59.754;10.110;2023-02-01T12:44:17;-0.30;80.38
65291;SHT30;51893;59.754;10.110;2023-02-01T12:47:29;-0.34;80.68
65291;SHT30;51893;59.754;10.110;2023-02-01T12:50:14;-0.35;80.88
65291;SHT30;51893;59.754;10.110;2023-02-01T12:52:55;-0.26;80.99
65291;SHT30;51893;59.754;10.110;2023-02-01T12:55:39;-0.25;80.96
65291;SHT30;51893;59.754;10.110;2023-02-01T12:58:23;-0.22;80.99
65291;SHT30;51893;59.754;10.110;2023-02-01T13:01:03;-0.25;80.75
65291;SHT30;51893;59.754;10.110;2023-02-01T13:03:56;-0.36;80.84
65291;SHT30;51893;59.754;10.110;2023-02-01T13:06:39;-0.42;81.07
65291;SHT30;51893;59.754;10.110;2023-02-01T13:12:13;-0.47;81.16
65291;SHT30;51893;59.754;10.110;2023-02-01T13:15:05;-0.45;81.12
65291;SHT30;51893;59.754;10.110;2023-02-01T13:17:55;-0.33;81.05
65291;SHT30;51893;59.754;10.110;2023-02-01T13:20:32;-0.27;80.99
65291;SHT30;51893;59.754;10.110;2023-02-01T13:23:14;-0.27;80.97
65291;SHT30;51893;59.754;10.110;2023-02-01T13:25:59;-0.25;81.01
65291;SHT30;51893;59.754;10.110;2023-02-01T13:29:11;-0.20;81.00
65291;SHT30;51893;59.754;10.110;2023-02-01T13:31:36;-0.19;80.81
65291;SHT30;51893;59.754;10.110;2023-02-01T13:35:18;-0.16;80.79
65291;SHT30;51893;59.754;10.110;2023-02-01T13:40:44;-0.18;80.63
65291;SHT30;51893;59.754;10.110;2023-02-01T13:43:29;-0.17;80.43
65291;SHT30;51893;59.754;10.110;2023-02-01T13:46:05;-0.16;80.33
65291;SHT30;51893;59.754;10.110;2023-02-01T13:48:50;-0.13;80.19
65291;SHT30;51893;59.754;10.110;2023-02-01T13:51:41;-0.08;79.98
65291;SHT30;51893;59.754;10.110;2023-02-01T13:57:15;-0.06;79.78
65291;SHT30;51893;59.754;10.110;2023-02-01T14:00:23;-0.06;79.60
65291;SHT30;51893;59.754;10.110;2023-02-01T14:03:02;-0.10;79.48
65291;SHT30;51893;59.754;10.110;2023-02-01T14:13:31;-0.11;79.48
65291;SHT30;51893;59.754;10.110;2023-02-01T14:16:11;-0.08;79.57
65291;SHT30;51893;59.754;10.110;2023-02-01T14:21:22;-0.05;79.21
65291;SHT30;51893;59.754;10.110;2023-02-01T14:26:50;-0.03;78.96
65291;SHT30;51893;59.754;10.110;2023-02-01T14:29:22;-0.08;78.62
65291;SHT30;51893;59.754;10.110;2023-02-01T14:32:15;-0.11;78.66
65291;SHT30;51893;59.754;10.110;2023-02-01T14:42:50;-0.23;78.47
65291;SHT30;51893;59.754;10.110;2023-02-01T14:50:47;-0.40;78.45
65291;SHT30;51893;59.754;10.110;2023-02-01T14:53:21;-0.46;78.21
65291;SHT30;51893;59.754;10.110;2023-02-01T14:58:54;-0.47;78.06
65291;SHT30;51893;59.754;10.110;2023-02-01T15:01:30;-0.53;77.91
65291;SHT30;51893;59.754;10.110;2023-02-01T15:04:06;-0.58;77.91
65291;SHT30;51893;59.754;10.110;2023-02-01T15:06:40;-0.60;78.00
65291;SHT30;51893;59.754;10.110;2023-02-01T15:09:36;-0.57;78.00
65291;SHT30;51893;59.754;10.110;2023-02-01T15:14:46;-0.53;77.59
65291;SHT30;51893;59.754;10.110;2023-02-01T15:17:31;-0.55;77.40
65291;SHT30;51893;59.754;10.110;2023-02-01T15:25:29;-0.70;77.01
65291;SHT30;51893;59.754;10.110;2023-02-01T15:28:05;-0.74;77.00
65291;SHT30;51893;59.754;10.110;2023-02-01T15:30:39;-0.79;77.03
65291;SHT30;51893;59.754;10.110;2023-02-01T15:33:18;-0.81;76.92
65291;SHT30;51893;59.754;10.110;2023-02-01T15:35:49;-0.89;76.72
65291;SHT30;51893;59.754;10.110;2023-02-01T15:43:48;-1.10;76.62
65291;SHT30;51893;59.754;10.110;2023-02-01T15:46:40;-1.16;76.75
65291;SHT30;51893;59.754;10.110;2023-02-01T15:49:31;-1.20;76.85
65291;SHT30;51893;59.754;10.110;2023-02-01T15:52:12;-1.29;76.90
65291;SHT30;51893;59.754;10.110;2023-02-01T15:58:19;-1.43;77.16
65291;SHT30;51893;59.754;10.110;2023-02-01T16:00:51;-1.43;77.09
65291;SHT30;51893;59.754;10.110;2023-02-01T16:06:10;-1.49;77.13
65291;SHT30;51893;59.754;10.110;2023-02-01T16:09:09;-1.50;77.10
65291;SHT30;51893;59.754;10.110;2023-02-01T16:11:47;-1.54;77.17
65291;SHT30;51893;59.754;10.110;2023-02-01T16:14:29;-1.59;77.14
65291;SHT30;51893;59.754;10.110;2023-02-01T16:16:59;-1.67;77.13
65291;SHT30;51893;59.754;10.110;2023-02-01T16:19:30;-1.70;77.31
65291;SHT30;51893;59.754;10.110;2023-02-01T16:21:58;-1.70;77.23
65291;SHT30;51893;59.754;10.110;2023-02-01T16:24:26;-1.73;77.09
65291;SHT30;51893;59.754;10.110;2023-02-01T16:26:55;-1.73;77.10
65291;SHT30;51893;59.754;10.110;2023-02-01T16:29:24;-1.80;76.96
65291;SHT30;51893;59.754;10.110;2023-02-01T16:31:52;-1.88;77.16
65291;SHT30;51893;59.754;10.110;2023-02-01T16:34:20;-1.94;77.21
65291;SHT30;51893;59.754;10.110;2023-02-01T16:36:49;-1.98;77.30
65291;SHT30;51893;59.754;10.110;2023-02-01T16:39:19;-2.05;77.19
65291;SHT30;51893;59.754;10.110;2023-02-01T16:41:48;-2.14;76.95
65291;SHT30;51893;59.754;10.110;2023-02-01T16:44:17;-2.17;77.09
65291;SHT30;51893;59.754;10.110;2023-02-01T16:46:46;-2.10;77.10
65291;SHT30;51893;59.754;10.110;2023-02-01T16:49:19;-2.13;76.82
65291;SHT30;51893;59.754;10.110;2023-02-01T16:51:51;-2.20;76.84
65291;SHT30;51893;59.754;10.110;2023-02-01T16:54:25;-2.21;77.02
65291;SHT30;51893;59.754;10.110;2023-02-01T16:56:54;-2.21;76.88
65291;SHT30;51893;59.754;10.110;2023-02-01T16:59:22;-2.30;76.73
65291;SHT30;51893;59.754;10.110;2023-02-01T17:01:50;-2.38;76.95
65291;SHT30;51893;59.754;10.110;2023-02-01T17:04:20;-2.40;77.09
65291;SHT30;51893;59.754;10.110;2023-02-01T17:06:48;-2.46;77.10
65291;SHT30;51893;59.754;10.110;2023-02-01T17:09:16;-2.49;77.21
65291;SHT30;51893;59.754;10.110;2023-02-01T17:11:45;-2.42;77.16
65291;SHT30;51893;59.754;10.110;2023-02-01T17:14:16;-2.43;77.04
65291;SHT30;51893;59.754;10.110;2023-02-01T17:16:49;-2.48;77.15
65291;SHT30;51893;59.754;10.110;2023-02-01T17:19:20;-2.54;77.34
65291;SHT30;51893;59.754;10.110;2023-02-01T17:21:54;-2.55;77.52
65291;SHT30;51893;59.754;10.110;2023-02-01T17:24:27;-2.54;77.66
65291;SHT30;51893;59.754;10.110;2023-02-01T17:27:15;-2.54;77.68
65291;SHT30;51893;59.754;10.110;2023-02-01T17:29:47;-2.57;77.73
65291;SHT30;51893;59.754;10.110;2023-02-01T17:32:19;-2.61;77.77
65291;SHT30;51893;59.754;10.110;2023-02-01T17:34:50;-2.59;77.68
65291;SHT30;51893;59.754;10.110;2023-02-01T17:40:08;-2.69;77.18
65291;SHT30;51893;59.754;10.110;2023-02-01T17:42:37;-2.71;77.13
65291;SHT30;51893;59.754;10.110;2023-02-01T17:45:16;-2.72;77.04
65291;SHT30;51893;59.754;10.110;2023-02-01T17:48:04;-2.74;77.10
65291;SHT30;51893;59.754;10.110;2023-02-01T17:50:35;-2.79;77.34
65291;SHT30;51893;59.754;10.110;2023-02-01T17:53:04;-2.84;77.37
65291;SHT30;51893;59.754;10.110;2023-02-01T17:55:37;-2.81;77.48
65291;SHT30;51893;59.754;10.110;2023-02-01T17:58:10;-2.70;77.43
65291;SHT30;51893;59.754;10.110;2023-02-01T18:00:44;-2.69;77.03
65291;SHT30;51893;59.754;10.110;2023-02-01T18:05:53;-2.77;76.91
65291;SHT30;51893;59.754;10.110;2023-02-01T18:08:25;-2.78;77.19
65291;SHT30;51893;59.754;10.110;2023-02-01T18:11:00;-2.74;77.61
65291;SHT30;51893;59.754;10.110;2023-02-01T18:13:30;-2.73;77.71
65291;SHT30;51893;59.754;10.110;2023-02-01T18:15:59;-2.79;77.79
65291;SHT30;51893;59.754;10.110;2023-02-01T18:18:28;-2.75;77.95
65291;SHT30;51893;59.754;10.110;2023-02-01T18:21:02;-2.75;77.82
65291;SHT30;51893;59.754;10.110;2023-02-01T18:23:30;-2.77;77.82
65291;SHT30;51893;59.754;10.110;2023-02-01T18:25:59;-2.74;77.92
65291;SHT30;51893;59.754;10.110;2023-02-01T18:28:27;-2.72;77.87
65291;SHT30;51893;59.754;10.110;2023-02-01T18:30:55;-2.74;77.84
65291;SHT30;51893;59.754;10.110;2023-02-01T18:33:31;-2.75;78.00
65291;SHT30;51893;59.754;10.110;2023-02-01T18:35:59;-2.77;78.11
65291;SHT30;51893;59.754;10.110;2023-02-01T18:38:27;-2.79;78.30
65291;SHT30;51893;59.754;10.110;2023-02-01T18:40:55;-2.76;78.32
65291;SHT30;51893;59.754;10.110;2023-02-01T18:43:28;-2.72;78.19
65291;SHT30;51893;59.754;10.110;2023-02-01T18:45:56;-2.73;78.13
65291;SHT30;51893;59.754;10.110;2023-02-01T18:48:26;-2.75;78.20